createdAt,value
2022-12-20T00:01:33.234Z,5.97
2022-12-20T00:04:08.525Z,5.80
2022-12-20T00:06:36.817Z,6.20
2022-12-20T00:09:06.967Z,5.80
2022-12-20T00:11:34.563Z,5.83
2022-12-20T00:14:01.557Z,6.20
2022-12-20T00:16:30.727Z,6.37
2022-12-20T00:19:00.928Z,5.77
2022-12-20T00:21:29.771Z,5.63
2022-12-20T00:23:57.440Z,6.57
2022-12-20T00:26:30.485Z,6.47
2022-12-20T00:28:57.820Z,5.40
2022-12-20T00:31:27.161Z,6.30
2022-12-20T00:33:56.718Z,5.77
2022-12-20T00:36:27.158Z,5.33
2022-12-20T00:38:56.320Z,5.60
2022-12-20T00:41:30.842Z,5.80
2022-12-20T00:43:57.920Z,5.67
2022-12-20T00:46:25.244Z,6.00
2022-12-20T00:48:54.786Z,5.43
2022-12-20T00:51:28.298Z,5.93
2022-12-20T00:53:56.098Z,5.57
2022-12-20T00:56:23.174Z,5.30
2022-12-20T00:58:53.503Z,4.87
2022-12-20T01:01:27.090Z,5.20
2022-12-20T01:03:54.684Z,5.97
2022-12-20T01:06:23.495Z,5.07
2022-12-20T01:08:51.093Z,5.77
2022-12-20T01:11:24.908Z,5.83
2022-12-20T01:13:56.278Z,5.17
2022-12-20T01:16:32.847Z,4.90
2022-12-20T01:19:00.902Z,5.70
2022-12-20T01:21:28.772Z,4.77
2022-12-20T01:23:56.638Z,5.30
2022-12-20T01:26:28.610Z,4.77
2022-12-20T01:28:59.360Z,4.53
2022-12-20T01:31:27.967Z,6.27
2022-12-20T01:33:55.143Z,4.90
2022-12-20T01:36:32.560Z,5.20
2022-12-20T01:39:03.552Z,4.93
2022-12-20T01:41:33.115Z,4.87
2022-12-20T01:44:18.088Z,4.50
2022-12-20T01:46:49.815Z,5.13
2022-12-20T01:49:31.114Z,5.00
2022-12-20T01:52:08.855Z,5.70
2022-12-20T01:54:50.591Z,4.73
2022-12-20T01:57:43.858Z,5.30
2022-12-20T02:00:11.721Z,4.87
2022-12-20T02:02:42.590Z,4.70
2022-12-20T02:05:11.540Z,4.40
2022-12-20T02:07:39.023Z,4.60
2022-12-20T02:10:08.007Z,5.53
2022-12-20T02:12:45.379Z,4.80
2022-12-20T02:15:59.038Z,4.43
2022-12-20T02:19:30.291Z,4.73
2022-12-20T02:23:00.015Z,3.80
2022-12-20T02:25:46.130Z,4.37
2022-12-20T02:29:09.504Z,4.87
2022-12-20T02:32:07.360Z,4.00
2022-12-20T02:34:36.977Z,4.20
2022-12-20T02:37:04.635Z,5.13
2022-12-20T02:39:33.753Z,4.90
2022-12-20T02:42:09.764Z,4.70
2022-12-20T02:45:01.423Z,4.27
2022-12-20T02:47:39.071Z,4.40
2022-12-20T02:50:08.989Z,3.90
2022-12-20T02:52:37.548Z,3.93
2022-12-20T02:55:06.583Z,4.40
2022-12-20T02:58:00.599Z,3.93
2022-12-20T03:00:34.683Z,3.70
2022-12-20T03:03:20.902Z,4.13
2022-12-20T03:05:56.352Z,4.40
2022-12-20T03:08:25.148Z,4.33
2022-12-20T03:10:54.958Z,3.73
2022-12-20T03:13:24.162Z,3.37
2022-12-20T03:16:02.437Z,3.50
2022-12-20T03:18:29.399Z,3.50
2022-12-20T03:20:56.687Z,3.13
2022-12-20T03:23:24.143Z,3.70
2022-12-20T03:25:51.484Z,3.67
2022-12-20T03:28:33.889Z,3.57
2022-12-20T03:31:00.991Z,3.70
2022-12-20T03:33:28.315Z,3.40
2022-12-20T03:35:58.832Z,3.50
2022-12-20T03:38:25.734Z,3.50
2022-12-20T03:40:52.776Z,2.80
2022-12-20T03:43:21.916Z,3.30
2022-12-20T03:45:48.986Z,3.10
2022-12-20T03:48:15.940Z,2.87
2022-12-20T03:50:42.903Z,3.50
2022-12-20T03:53:10.043Z,2.90
2022-12-20T03:55:37.549Z,3.43
2022-12-20T03:58:04.551Z,3.20
2022-12-20T04:00:34.901Z,3.47
2022-12-20T04:03:24.423Z,3.53
2022-12-20T04:05:52.014Z,3.37
2022-12-20T04:08:18.950Z,3.40
2022-12-20T04:11:06.541Z,2.90
2022-12-20T04:13:36.320Z,3.33
2022-12-20T04:16:04.043Z,3.60
2022-12-20T04:18:32.956Z,3.50
2022-12-20T04:21:01.963Z,3.17
2022-12-20T04:23:31.105Z,3.70
2022-12-20T04:25:58.904Z,3.63
2022-12-20T04:28:26.093Z,3.40
2022-12-20T04:30:54.470Z,4.07
2022-12-20T04:33:26.391Z,3.60
2022-12-20T04:35:54.853Z,3.40
2022-12-20T04:38:23.685Z,3.50
2022-12-20T04:40:54.882Z,3.20
2022-12-20T04:43:24.300Z,3.40
2022-12-20T04:45:56.275Z,2.97
2022-12-20T04:51:14.075Z,3.63
2022-12-20T04:53:47.884Z,3.67
2022-12-20T04:56:29.299Z,3.40
2022-12-20T04:59:03.299Z,3.53
2022-12-20T05:01:31.265Z,4.13
2022-12-20T05:03:58.409Z,4.00
2022-12-20T05:06:29.847Z,4.23
2022-12-20T05:08:57.019Z,3.47
2022-12-20T05:11:25.015Z,3.80
2022-12-20T05:13:52.452Z,4.00
2022-12-20T05:16:21.372Z,3.77
2022-12-20T05:18:49.497Z,3.87
2022-12-20T05:21:36.066Z,3.57
2022-12-20T05:24:23.111Z,3.87
2022-12-20T05:26:59.685Z,3.90
2022-12-20T05:29:28.043Z,3.77
2022-12-20T05:31:55.686Z,4.20
2022-12-20T05:34:23.066Z,4.00
2022-12-20T05:36:53.249Z,4.00
2022-12-20T05:39:22.322Z,4.10
2022-12-20T05:41:53.623Z,4.07
2022-12-20T05:44:23.007Z,4.10
2022-12-20T05:46:52.686Z,3.67
2022-12-20T05:49:25.724Z,4.33
2022-12-20T05:51:53.797Z,4.07
2022-12-20T05:54:25.647Z,4.00
2022-12-20T05:57:04.582Z,4.10
2022-12-20T05:59:37.795Z,4.50
2022-12-20T06:02:07.997Z,4.70
2022-12-20T06:04:36.983Z,4.23
2022-12-20T06:07:10.848Z,4.57
2022-12-20T06:09:38.149Z,5.13
2022-12-20T06:12:09.098Z,4.50
2022-12-20T06:14:36.371Z,4.63
2022-12-20T06:17:03.456Z,4.60
2022-12-20T06:19:32.123Z,3.83
2022-12-20T06:22:01.090Z,4.03
2022-12-20T06:24:39.482Z,4.60
2022-12-20T06:27:09.938Z,4.30
2022-12-20T06:29:38.801Z,4.13
2022-12-20T06:32:09.997Z,4.13
2022-12-20T06:34:38.664Z,4.33
2022-12-20T06:37:05.731Z,5.00
2022-12-20T06:39:34.831Z,4.73
2022-12-20T06:42:06.965Z,5.07
2022-12-20T06:44:35.597Z,4.73
2022-12-20T06:47:03.798Z,5.13
2022-12-20T06:49:30.948Z,4.30
2022-12-20T06:51:59.024Z,5.00
2022-12-20T06:54:35.420Z,4.00
2022-12-20T06:57:02.849Z,4.57
2022-12-20T06:59:30.182Z,5.73
2022-12-20T07:01:57.311Z,4.30
2022-12-20T07:04:25.964Z,5.10
2022-12-20T07:06:52.925Z,4.73
2022-12-20T07:09:19.840Z,5.40
2022-12-20T07:11:46.869Z,5.30
2022-12-20T07:14:13.764Z,5.10
2022-12-20T07:16:43.346Z,4.67
2022-12-20T07:19:13.748Z,5.80
2022-12-20T07:21:40.869Z,4.47
2022-12-20T07:24:08.587Z,5.00
2022-12-20T07:26:36.335Z,5.50
2022-12-20T07:29:04.438Z,4.73
2022-12-20T07:31:31.435Z,5.73
2022-12-20T07:34:00.829Z,5.50
2022-12-20T07:36:27.832Z,5.93
2022-12-20T07:38:54.839Z,4.90
2022-12-20T07:41:22.495Z,4.73
2022-12-20T07:43:49.460Z,4.80
2022-12-20T07:46:17.930Z,4.53
2022-12-20T07:48:45.954Z,4.70
2022-12-20T07:51:28.399Z,5.00
2022-12-20T07:54:11.880Z,5.57
2022-12-20T07:56:44.677Z,5.70
2022-12-20T07:59:16.572Z,5.47
2022-12-20T08:01:45.677Z,5.20
2022-12-20T08:04:21.558Z,6.13
2022-12-20T08:06:50.956Z,5.77
2022-12-20T08:09:18.755Z,4.67
2022-12-20T08:11:49.030Z,6.20
2022-12-20T08:14:18.725Z,5.83
2022-12-20T08:16:46.509Z,4.83
2022-12-20T08:19:13.488Z,5.33
2022-12-20T08:21:40.415Z,5.93
2022-12-20T08:24:08.267Z,5.23
2022-12-20T08:26:42.303Z,6.00
2022-12-20T08:29:10.529Z,6.43
2022-12-20T08:31:43.127Z,6.50
2022-12-20T08:34:14.726Z,7.10
2022-12-20T08:36:41.652Z,6.67
2022-12-20T08:39:08.663Z,7.07
2022-12-20T08:41:37.471Z,6.47
2022-12-20T08:44:05.939Z,6.87
2022-12-20T08:46:33.099Z,7.53
2022-12-20T08:49:00.181Z,7.23
2022-12-20T08:51:27.247Z,7.80
2022-12-20T08:53:54.307Z,8.07
2022-12-20T08:56:21.509Z,8.20
2022-12-20T08:58:49.012Z,7.00
2022-12-20T09:01:19.187Z,8.00
2022-12-20T09:03:47.456Z,7.30
2022-12-20T09:06:20.590Z,7.17
2022-12-20T09:08:48.781Z,7.47
2022-12-20T09:11:24.092Z,6.90
2022-12-20T09:13:56.446Z,6.70
2022-12-20T09:16:27.516Z,6.83
2022-12-20T09:19:04.659Z,7.40
2022-12-20T09:21:33.624Z,7.63
2022-12-20T09:24:00.654Z,7.70
2022-12-20T09:26:27.676Z,6.80
2022-12-20T09:28:55.405Z,7.30
2022-12-20T09:31:27.312Z,7.37
2022-12-20T09:33:58.299Z,6.27
2022-12-20T09:36:27.848Z,7.00
2022-12-20T09:38:56.381Z,6.50
2022-12-20T09:41:39.664Z,6.50
2022-12-20T09:44:33.941Z,6.80
2022-12-20T09:47:10.749Z,6.00
2022-12-20T09:49:42.992Z,6.13
2022-12-20T09:52:27.545Z,6.10
2022-12-20T09:54:59.962Z,7.00
2022-12-20T09:57:53.819Z,5.77
2022-12-20T10:00:21.546Z,6.27
2022-12-20T10:03:09.858Z,6.13
2022-12-20T10:06:05.538Z,5.80
2022-12-20T10:08:43.303Z,5.87
2022-12-20T10:11:58.272Z,5.10
2022-12-20T10:14:31.022Z,4.87
2022-12-20T10:17:32.761Z,3.70
2022-12-20T10:20:12.321Z,4.60
2022-12-20T10:22:56.126Z,4.63
2022-12-20T10:25:30.652Z,4.20
2022-12-20T10:27:58.292Z,4.70
2022-12-20T10:30:27.856Z,5.30
2022-12-20T10:32:57.946Z,5.90
2022-12-20T10:35:31.347Z,5.20
2022-12-20T10:38:09.907Z,4.80
2022-12-20T10:41:19.956Z,5.10
2022-12-20T10:43:46.548Z,4.17
2022-12-20T10:46:18.819Z,5.97
2022-12-20T10:48:48.368Z,5.10
2022-12-20T10:51:22.174Z,4.80
2022-12-20T10:54:03.811Z,4.10
2022-12-20T10:56:35.016Z,5.10
2022-12-20T10:59:15.735Z,4.27
2022-12-20T11:01:47.325Z,4.47
2022-12-20T11:04:38.695Z,4.90
2022-12-20T11:07:27.358Z,4.17
2022-12-20T11:10:20.455Z,4.80
2022-12-20T11:12:54.499Z,4.50
2022-12-20T11:15:36.542Z,12.20
2022-12-20T11:18:15.355Z,15.73
2022-12-20T11:21:04.306Z,4.70
2022-12-20T11:23:42.571Z,4.70
2022-12-20T11:26:42.302Z,4.70
2022-12-20T11:29:42.873Z,4.13
2022-12-20T11:33:28.179Z,3.87
2022-12-20T11:36:27.809Z,3.47
2022-12-20T11:39:14.609Z,3.63
2022-12-20T11:41:55.462Z,4.07
2022-12-20T11:44:52.043Z,3.87
2022-12-20T11:47:53.714Z,3.80
2022-12-20T11:51:01.977Z,4.13
2022-12-20T11:53:51.030Z,3.40
2022-12-20T11:56:38.589Z,3.67
2022-12-20T11:59:35.058Z,3.33
2022-12-20T12:02:22.419Z,3.23
2022-12-20T12:05:00.108Z,3.40
2022-12-20T12:07:34.392Z,3.40
2022-12-20T12:10:20.230Z,3.97
2022-12-20T12:13:17.255Z,3.97
2022-12-20T12:16:06.696Z,3.43
2022-12-20T12:18:36.267Z,3.80
2022-12-20T12:21:18.221Z,3.73
2022-12-20T12:23:45.088Z,3.33
2022-12-20T12:26:28.085Z,3.50
2022-12-20T12:28:59.178Z,3.50
2022-12-20T12:31:53.889Z,4.13
2022-12-20T12:34:55.287Z,3.57
2022-12-20T12:37:50.714Z,3.53
2022-12-20T12:40:51.981Z,3.83
2022-12-20T12:43:55.011Z,3.43
2022-12-20T12:46:30.626Z,3.90
2022-12-20T12:49:18.512Z,4.33
2022-12-20T12:51:54.317Z,4.50
2022-12-20T12:54:41.405Z,4.10
2022-12-20T12:57:18.495Z,3.77
2022-12-20T12:59:48.631Z,3.70
2022-12-20T13:02:16.408Z,4.80
2022-12-20T13:05:04.686Z,4.27
2022-12-20T13:07:37.214Z,4.20
2022-12-20T13:10:10.158Z,4.60
2022-12-20T13:12:40.078Z,4.30
2022-12-20T13:15:21.997Z,4.20
2022-12-20T13:18:01.007Z,4.20
2022-12-20T13:20:34.041Z,4.67
2022-12-20T13:23:10.331Z,5.07
2022-12-20T13:25:49.168Z,4.67
2022-12-20T13:28:19.474Z,4.07
2022-12-20T13:31:09.891Z,5.00
2022-12-20T13:33:51.704Z,4.53
2022-12-20T13:36:34.100Z,4.80
2022-12-20T13:39:25.243Z,4.33
2022-12-20T13:42:22.842Z,4.63
2022-12-20T13:44:53.035Z,4.60
2022-12-20T13:47:25.920Z,4.87
2022-12-20T13:49:52.969Z,4.10
2022-12-20T13:52:31.195Z,5.80
2022-12-20T13:55:07.602Z,4.90
2022-12-20T13:57:46.110Z,4.67
2022-12-20T14:00:18.531Z,5.33
2022-12-20T14:02:46.437Z,5.90
2022-12-20T14:05:41.787Z,6.23
2022-12-20T14:08:16.530Z,4.80
2022-12-20T14:10:43.471Z,5.50
2022-12-20T14:13:24.219Z,4.80
2022-12-20T14:15:51.943Z,5.10
2022-12-20T14:18:21.461Z,5.07
2022-12-20T14:20:55.964Z,5.10
2022-12-20T14:23:29.690Z,5.00
2022-12-20T14:26:02.412Z,4.67
2022-12-20T14:28:37.914Z,4.43
2022-12-20T14:31:07.658Z,4.40
2022-12-20T14:33:37.782Z,5.47
2022-12-20T14:36:16.717Z,8.60
2022-12-20T14:38:56.512Z,4.50
2022-12-20T14:41:35.897Z,4.87
2022-12-20T14:44:24.274Z,8.60
2022-12-20T14:46:57.852Z,12.03
2022-12-20T14:49:35.958Z,8.60
2022-12-20T14:52:11.817Z,4.37
2022-12-20T14:55:07.592Z,5.03
2022-12-20T14:57:35.697Z,4.53
2022-12-20T15:00:29.192Z,4.30
2022-12-20T15:02:56.123Z,4.43
2022-12-20T15:05:35.825Z,4.80
2022-12-20T15:08:23.122Z,4.33
2022-12-20T15:11:10.695Z,4.60
2022-12-20T15:13:43.413Z,4.57
2022-12-20T15:16:22.982Z,4.20
2022-12-20T15:18:56.870Z,5.13
2022-12-20T15:21:37.355Z,4.40
2022-12-20T15:24:10.609Z,4.53
2022-12-20T15:26:37.733Z,4.80
2022-12-20T15:29:05.337Z,5.13
2022-12-20T15:31:37.280Z,5.93
2022-12-20T15:34:37.089Z,4.53
2022-12-20T15:37:05.054Z,5.80
2022-12-20T15:39:33.551Z,4.10
2022-12-20T15:42:04.719Z,4.60
2022-12-20T15:44:33.416Z,5.03
2022-12-20T15:47:00.872Z,4.53
2022-12-20T15:49:31.435Z,4.97
2022-12-20T15:51:58.954Z,4.50
2022-12-20T15:54:35.696Z,5.43
2022-12-20T15:57:07.706Z,4.87
2022-12-20T16:02:29.014Z,5.23
2022-12-20T16:04:56.331Z,5.73
2022-12-20T16:07:23.621Z,5.83
2022-12-20T16:09:50.817Z,6.03
2022-12-20T16:12:29.221Z,5.90
2022-12-20T16:14:56.947Z,6.70
2022-12-20T16:17:24.198Z,7.80
2022-12-20T16:19:51.163Z,7.30
2022-12-20T16:22:22.563Z,7.10
2022-12-20T16:24:50.663Z,7.10
2022-12-20T16:27:17.971Z,7.40
2022-12-20T16:29:45.461Z,7.77
2022-12-20T16:32:21.568Z,7.23
2022-12-20T16:34:52.813Z,7.77
2022-12-20T16:37:19.792Z,7.90
2022-12-20T16:39:47.036Z,8.60
2022-12-20T16:42:17.306Z,8.33
2022-12-20T16:44:45.736Z,8.90
2022-12-20T16:47:14.478Z,9.40
2022-12-20T16:49:51.905Z,9.10
2022-12-20T16:52:23.538Z,10.07
2022-12-20T16:54:51.508Z,9.07
2022-12-20T16:57:19.044Z,9.70
2022-12-20T16:59:45.944Z,9.23
2022-12-20T17:02:24.746Z,8.53
2022-12-20T17:04:52.048Z,10.60
2022-12-20T17:07:18.974Z,10.20
2022-12-20T17:12:30.605Z,10.30
2022-12-20T17:14:57.528Z,11.20
2022-12-20T17:17:24.665Z,10.47
2022-12-20T17:19:51.555Z,11.00
2022-12-20T17:22:25.033Z,10.83
2022-12-20T17:24:52.065Z,10.30
2022-12-20T17:27:19.028Z,10.20
2022-12-20T17:29:46.109Z,11.43
2022-12-20T17:32:23.953Z,10.63
2022-12-20T17:34:51.531Z,11.40
2022-12-20T17:37:18.718Z,11.57
2022-12-20T17:39:45.926Z,11.43
2022-12-20T17:42:14.017Z,11.90
2022-12-20T17:44:41.192Z,11.67
2022-12-20T17:47:08.591Z,12.03
2022-12-20T17:49:35.838Z,11.60
2022-12-20T17:52:02.980Z,14.00
2022-12-20T17:54:38.588Z,12.20
2022-12-20T17:57:13.038Z,12.77
2022-12-20T17:59:40.013Z,14.90
2022-12-20T18:02:33.277Z,13.60
2022-12-20T18:05:00.443Z,13.07
2022-12-20T18:07:28.306Z,13.37
2022-12-20T18:09:55.331Z,14.27
2022-12-20T18:12:22.296Z,14.77
2022-12-20T18:14:50.025Z,13.13
2022-12-20T18:17:17.504Z,14.60
2022-12-20T18:19:45.514Z,14.60
2022-12-20T18:22:13.765Z,14.43
2022-12-20T18:24:40.836Z,14.37
2022-12-20T18:27:07.798Z,13.50
2022-12-20T18:29:34.775Z,15.73
2022-12-20T18:32:01.824Z,14.50
2022-12-20T18:34:29.051Z,14.37
2022-12-20T18:36:55.977Z,15.57
2022-12-20T18:39:23.177Z,16.70
2022-12-20T18:41:50.042Z,17.77
2022-12-20T18:44:17.266Z,16.33
2022-12-20T18:46:44.203Z,15.53
2022-12-20T18:49:11.799Z,17.57
2022-12-20T18:51:38.730Z,16.50
2022-12-20T18:54:10.649Z,14.47
2022-12-20T18:56:39.530Z,13.53
2022-12-20T18:59:11.797Z,14.27
2022-12-20T19:01:41.048Z,13.80
2022-12-20T19:04:09.129Z,13.67
2022-12-20T19:06:37.753Z,13.83
2022-12-20T19:09:09.034Z,12.33
2022-12-20T19:11:37.101Z,12.60
2022-12-20T19:14:04.058Z,13.47
2022-12-20T19:16:34.434Z,13.40
2022-12-20T19:19:03.934Z,13.10
2022-12-20T19:21:34.876Z,12.07
2022-12-20T19:24:06.907Z,14.35
2022-12-20T19:26:36.899Z,14.07
2022-12-20T19:29:05.121Z,13.00
2022-12-20T19:31:36.166Z,13.60
2022-12-20T19:34:10.396Z,13.90
2022-12-20T19:36:46.387Z,13.73
2022-12-20T19:39:20.702Z,13.00
2022-12-20T19:42:13.987Z,12.43
2022-12-20T19:44:36.273Z,11.90
2022-12-20T19:47:06.559Z,11.93
2022-12-20T19:49:35.531Z,9.00
2022-12-20T19:52:02.949Z,12.27
2022-12-20T19:54:29.963Z,12.50
2022-12-20T19:56:58.406Z,9.60
2022-12-20T19:59:25.508Z,23.03
2022-12-20T20:01:52.490Z,11.50
2022-12-20T20:04:20.112Z,10.50
2022-12-20T20:06:47.008Z,11.47
2022-12-20T20:09:14.548Z,12.23
2022-12-20T20:11:41.409Z,11.27
2022-12-20T20:14:10.094Z,12.47
2022-12-20T20:16:37.911Z,11.80
2022-12-20T20:19:05.526Z,12.73
2022-12-20T20:21:34.887Z,12.17
2022-12-20T20:24:02.618Z,11.07
2022-12-20T20:26:31.803Z,12.23
2022-12-20T20:29:00.959Z,12.23
2022-12-20T20:31:28.078Z,12.07
2022-12-20T20:33:55.172Z,12.63
2022-12-20T20:36:23.474Z,11.70
2022-12-20T20:38:52.272Z,11.90
2022-12-20T20:41:19.228Z,11.80
2022-12-20T20:43:46.543Z,11.57
2022-12-20T20:46:16.128Z,12.43
2022-12-20T20:48:44.096Z,11.60
2022-12-20T20:51:11.457Z,11.03
2022-12-20T20:53:39.306Z,11.60
2022-12-20T20:56:07.853Z,11.20
2022-12-20T20:58:35.677Z,12.00
2022-12-20T21:01:04.878Z,11.93
2022-12-20T21:03:33.326Z,11.93
2022-12-20T21:06:37.140Z,12.03
2022-12-20T21:08:47.879Z,11.20
2022-12-20T21:11:15.089Z,12.90
2022-12-20T21:13:42.077Z,11.73
2022-12-20T21:16:20.310Z,11.50
2022-12-20T21:18:55.055Z,11.87
2022-12-20T21:21:23.274Z,14.20
2022-12-20T21:23:50.643Z,11.70
2022-12-20T21:26:19.116Z,15.60
2022-12-20T21:28:46.617Z,12.90
2022-12-20T21:31:17.179Z,13.27
2022-12-20T21:33:46.046Z,13.40
2022-12-20T21:36:17.193Z,12.93
2022-12-20T21:38:53.707Z,13.10
2022-12-20T21:41:23.320Z,14.50
2022-12-20T21:43:54.448Z,14.60
2022-12-20T21:46:21.525Z,13.80
2022-12-20T21:48:48.451Z,14.63
2022-12-20T21:51:22.347Z,14.43
2022-12-20T21:53:53.111Z,14.63
2022-12-20T21:56:21.896Z,14.57
2022-12-20T21:58:50.718Z,15.80
2022-12-20T22:01:22.081Z,16.87
2022-12-20T22:04:04.765Z,16.27
2022-12-20T22:06:32.480Z,15.87
2022-12-20T22:09:00.221Z,15.93
2022-12-20T22:11:27.733Z,16.60
2022-12-20T22:13:55.990Z,17.57
2022-12-20T22:16:26.057Z,16.90
2022-12-20T22:18:55.294Z,19.10
2022-12-20T22:21:33.818Z,17.73
2022-12-20T22:24:01.796Z,18.33
2022-12-20T22:26:31.763Z,19.60
2022-12-20T22:29:05.161Z,17.57
2022-12-20T22:31:33.101Z,19.90
2022-12-20T22:34:00.396Z,18.70
2022-12-20T22:36:28.029Z,17.90
2022-12-20T22:38:56.583Z,19.53
2022-12-20T22:41:28.606Z,19.33
2022-12-20T22:43:58.082Z,19.97
2022-12-20T22:46:25.494Z,18.57
2022-12-20T22:48:52.610Z,19.83
2022-12-20T22:51:22.027Z,18.37
2022-12-20T22:53:49.522Z,18.80
2022-12-20T22:56:19.467Z,20.53
2022-12-20T22:58:46.998Z,19.40
2022-12-20T23:01:16.156Z,19.80
2022-12-20T23:03:44.359Z,21.13
2022-12-20T23:06:15.693Z,21.50
2022-12-20T23:08:43.278Z,21.77
2022-12-20T23:11:38.014Z,21.23
2022-12-20T23:14:24.885Z,22.10
2022-12-20T23:16:53.528Z,21.70
2022-12-20T23:19:20.429Z,22.40
2022-12-20T23:22:05.831Z,22.80
2022-12-20T23:24:32.725Z,23.10
2022-12-20T23:26:59.886Z,24.47
2022-12-20T23:29:26.855Z,25.60
2022-12-20T23:31:53.881Z,24.40
2022-12-20T23:34:21.147Z,24.70
2022-12-20T23:36:48.396Z,24.73
2022-12-20T23:39:15.380Z,25.30
2022-12-20T23:41:42.245Z,26.43
2022-12-20T23:44:09.268Z,24.83
2022-12-20T23:46:36.121Z,25.80
2022-12-20T23:49:03.013Z,24.83
2022-12-20T23:51:30.097Z,27.23
2022-12-20T23:53:57.842Z,25.70
2022-12-20T23:56:25.194Z,25.93
2022-12-20T23:58:54.194Z,27.00
